Portada
METAR-TAF:

METAR-TAF

Aeroports :

Ilhéus, Bahia, Brasil

latitud: 14-49S, longitud: 039-02W, altitud: 4 m

Observació

L'informe es va fer fa 4 hores i 11 minuts, a les 20:00 UTC
Vent 7 kt del Est
Temperatura 27°C
Humitat 79%
Pressió 1015 hPa
Visibilitat 10 km o més
Escasses núvols a una alçada de 2000 ft

METAR: SBIL 292000Z 09007KT 9999 FEW020 27/23 Q1015

Hora: 21:11 (00:11 UTC)

Pronòstic

L'informe es va fer fa 8 hores i 8 minuts, a les 16:03 UTC
Pronòstic vàlid del 29 a les 18 UTC al 30 a les 06 UTC
Vent 8 kt del Est/Nord-Est
Visibilitat 10 km o més
Evolucionant progressivament
l' 30 a les 00 UTC al 30 a les 02 UTC
Visibilitat: 8000 m
Núvols disperses a una alçada de 1700 ft
pluja

TAF: SBIL 291603Z 2918/3006 07008KT 9999 SCT025TX30/2918Z TN21/3005Z BECMG 3000/3002 8000 RA SCT017 RMK PHM

Observacions i pronòstics meteorològics de més de 4000 aeroports (METAR i TAF).

Les estacions disponibles són els punts grocs i vermells al mapa.

Posi el ratolí al punt desitjat per veure el nom de l'estació.

Feu clic per veure les observacions i els pronòstics meteorològics.

Per canviar el mapa: feu clic els botons verds amb una creu de color negre per apropar; al botó verd amb un guió per allunyar la imatge; o en les fletxes verdes per a mapes adjacents.


METAR-TAF: